sensor_id;sensor_type;location;lat;lon;timestamp;P1;durP1;ratioP1;P2;durP2;ratioP2
9328;SDS011;4703;48.748;19.142;2022-09-23T00:01:16;14.13;;;11.10;;
9328;SDS011;4703;48.748;19.142;2022-09-23T00:03:44;14.80;;;11.50;;
9328;SDS011;4703;48.748;19.142;2022-09-23T00:06:16;13.53;;;11.17;;
9328;SDS011;4703;48.748;19.142;2022-09-23T00:08:46;13.50;;;10.10;;
9328;SDS011;4703;48.748;19.142;2022-09-23T00:11:16;11.53;;;9.20;;
9328;SDS011;4703;48.748;19.142;2022-09-23T00:13:49;10.97;;;9.83;;
9328;SDS011;4703;48.748;19.142;2022-09-23T00:16:24;11.40;;;9.20;;
9328;SDS011;4703;48.748;19.142;2022-09-23T00:18:54;12.70;;;9.33;;
9328;SDS011;4703;48.748;19.142;2022-09-23T00:21:22;11.27;;;8.70;;
9328;SDS011;4703;48.748;19.142;2022-09-23T00:23:50;13.67;;;9.60;;
9328;SDS011;4703;48.748;19.142;2022-09-23T00:26:18;15.03;;;9.93;;
9328;SDS011;4703;48.748;19.142;2022-09-23T00:28:47;11.67;;;9.30;;
9328;SDS011;4703;48.748;19.142;2022-09-23T00:31:16;15.80;;;9.37;;
9328;SDS011;4703;48.748;19.142;2022-09-23T00:33:46;13.00;;;10.07;;
9328;SDS011;4703;48.748;19.142;2022-09-23T00:36:18;11.67;;;9.40;;
9328;SDS011;4703;48.748;19.142;2022-09-23T00:38:45;11.97;;;10.23;;
9328;SDS011;4703;48.748;19.142;2022-09-23T00:41:12;14.40;;;11.20;;
9328;SDS011;4703;48.748;19.142;2022-09-23T00:43:45;13.23;;;11.27;;
9328;SDS011;4703;48.748;19.142;2022-09-23T00:48:56;12.83;;;11.30;;
9328;SDS011;4703;48.748;19.142;2022-09-23T00:51:31;17.93;;;13.97;;
9328;SDS011;4703;48.748;19.142;2022-09-23T00:54:03;18.43;;;15.50;;
9328;SDS011;4703;48.748;19.142;2022-09-23T00:56:31;17.90;;;15.23;;
9328;SDS011;4703;48.748;19.142;2022-09-23T00:59:00;19.47;;;14.70;;
9328;SDS011;4703;48.748;19.142;2022-09-23T01:01:28;20.60;;;16.53;;
9328;SDS011;4703;48.748;19.142;2022-09-23T01:03:55;19.10;;;16.30;;
9328;SDS011;4703;48.748;19.142;2022-09-23T01:06:23;20.63;;;16.87;;
9328;SDS011;4703;48.748;19.142;2022-09-23T01:08:51;20.30;;;15.67;;
9328;SDS011;4703;48.748;19.142;2022-09-23T01:30:15;20.10;;;15.97;;
9328;SDS011;4703;48.748;19.142;2022-09-23T01:33:21;21.00;;;15.97;;
9328;SDS011;4703;48.748;19.142;2022-09-23T01:36:06;22.63;;;16.40;;
9328;SDS011;4703;48.748;19.142;2022-09-23T01:38:43;20.53;;;15.47;;
9328;SDS011;4703;48.748;19.142;2022-09-23T01:41:24;21.07;;;14.80;;
9328;SDS011;4703;48.748;19.142;2022-09-23T01:47:04;20.20;;;15.43;;
9328;SDS011;4703;48.748;19.142;2022-09-23T01:52:52;15.87;;;13.63;;
9328;SDS011;4703;48.748;19.142;2022-09-23T01:55:07;20.93;;;15.20;;
9328;SDS011;4703;48.748;19.142;2022-09-23T01:57:49;17.70;;;14.33;;
9328;SDS011;4703;48.748;19.142;2022-09-23T02:00:25;21.63;;;14.87;;
9328;SDS011;4703;48.748;19.142;2022-09-23T02:03:03;18.20;;;13.40;;
9328;SDS011;4703;48.748;19.142;2022-09-23T02:05:45;14.10;;;12.50;;
9328;SDS011;4703;48.748;19.142;2022-09-23T02:08:18;15.33;;;12.17;;
9328;SDS011;4703;48.748;19.142;2022-09-23T02:10:57;15.40;;;11.87;;
9328;SDS011;4703;48.748;19.142;2022-09-23T02:13:35;14.03;;;11.20;;
9328;SDS011;4703;48.748;19.142;2022-09-23T02:16:44;14.87;;;12.93;;
9328;SDS011;4703;48.748;19.142;2022-09-23T02:22:14;16.40;;;13.17;;
9328;SDS011;4703;48.748;19.142;2022-09-23T02:24:54;16.73;;;13.03;;
9328;SDS011;4703;48.748;19.142;2022-09-23T02:27:24;19.70;;;14.63;;
9328;SDS011;4703;48.748;19.142;2022-09-23T02:32:53;25.40;;;14.17;;
9328;SDS011;4703;48.748;19.142;2022-09-23T02:41:08;21.50;;;15.40;;
9328;SDS011;4703;48.748;19.142;2022-09-23T02:46:19;20.83;;;15.90;;
9328;SDS011;4703;48.748;19.142;2022-09-23T02:48:48;20.10;;;14.83;;
9328;SDS011;4703;48.748;19.142;2022-09-23T02:51:26;17.20;;;12.90;;
9328;SDS011;4703;48.748;19.142;2022-09-23T02:53:59;18.30;;;14.50;;
9328;SDS011;4703;48.748;19.142;2022-09-23T02:56:28;17.80;;;13.50;;
9328;SDS011;4703;48.748;19.142;2022-09-23T02:58:55;18.63;;;13.80;;
9328;SDS011;4703;48.748;19.142;2022-09-23T03:01:38;16.57;;;12.50;;
9328;SDS011;4703;48.748;19.142;2022-09-23T03:16:44;17.90;;;12.00;;
9328;SDS011;4703;48.748;19.142;2022-09-23T03:24:40;12.90;;;11.03;;
9328;SDS011;4703;48.748;19.142;2022-09-23T03:27:14;15.47;;;11.80;;
9328;SDS011;4703;48.748;19.142;2022-09-23T03:29:47;12.87;;;11.50;;
9328;SDS011;4703;48.748;19.142;2022-09-23T03:32:16;14.37;;;12.30;;
9328;SDS011;4703;48.748;19.142;2022-09-23T03:34:47;15.43;;;10.43;;
9328;SDS011;4703;48.748;19.142;2022-09-23T03:37:25;12.80;;;11.17;;
9328;SDS011;4703;48.748;19.142;2022-09-23T03:40:26;13.57;;;11.77;;
9328;SDS011;4703;48.748;19.142;2022-09-23T03:43:00;15.53;;;10.63;;
9328;SDS011;4703;48.748;19.142;2022-09-23T03:45:29;14.37;;;11.10;;
9328;SDS011;4703;48.748;19.142;2022-09-23T03:47:59;16.47;;;12.20;;
9328;SDS011;4703;48.748;19.142;2022-09-23T03:50:27;12.63;;;11.30;;
9328;SDS011;4703;48.748;19.142;2022-09-23T03:52:54;16.27;;;12.57;;
9328;SDS011;4703;48.748;19.142;2022-09-23T03:55:21;13.73;;;11.70;;
9328;SDS011;4703;48.748;19.142;2022-09-23T03:57:48;14.90;;;12.23;;
9328;SDS011;4703;48.748;19.142;2022-09-23T04:00:15;17.00;;;12.50;;
9328;SDS011;4703;48.748;19.142;2022-09-23T04:02:42;12.57;;;10.70;;
9328;SDS011;4703;48.748;19.142;2022-09-23T04:05:10;15.27;;;11.80;;
9328;SDS011;4703;48.748;19.142;2022-09-23T04:07:38;12.33;;;11.03;;
9328;SDS011;4703;48.748;19.142;2022-09-23T04:10:05;15.70;;;12.50;;
9328;SDS011;4703;48.748;19.142;2022-09-23T04:12:33;14.10;;;10.73;;
9328;SDS011;4703;48.748;19.142;2022-09-23T04:15:00;15.67;;;9.97;;
9328;SDS011;4703;48.748;19.142;2022-09-23T04:17:27;13.10;;;10.10;;
9328;SDS011;4703;48.748;19.142;2022-09-23T04:19:54;14.37;;;11.20;;
9328;SDS011;4703;48.748;19.142;2022-09-23T04:22:20;16.27;;;12.20;;
9328;SDS011;4703;48.748;19.142;2022-09-23T04:24:48;14.27;;;10.90;;
9328;SDS011;4703;48.748;19.142;2022-09-23T04:27:15;12.77;;;10.37;;
9328;SDS011;4703;48.748;19.142;2022-09-23T04:29:42;17.50;;;12.27;;
9328;SDS011;4703;48.748;19.142;2022-09-23T04:32:09;13.23;;;10.83;;
9328;SDS011;4703;48.748;19.142;2022-09-23T04:34:36;15.70;;;12.10;;
9328;SDS011;4703;48.748;19.142;2022-09-23T04:37:03;16.53;;;12.50;;
9328;SDS011;4703;48.748;19.142;2022-09-23T04:39:30;15.40;;;13.03;;
9328;SDS011;4703;48.748;19.142;2022-09-23T04:41:57;17.40;;;11.20;;
9328;SDS011;4703;48.748;19.142;2022-09-23T04:44:24;18.60;;;11.97;;
9328;SDS011;4703;48.748;19.142;2022-09-23T04:46:53;15.13;;;11.50;;
9328;SDS011;4703;48.748;19.142;2022-09-23T04:49:20;15.00;;;12.13;;
9328;SDS011;4703;48.748;19.142;2022-09-23T04:51:47;14.53;;;11.37;;
9328;SDS011;4703;48.748;19.142;2022-09-23T04:54:14;17.30;;;12.63;;
9328;SDS011;4703;48.748;19.142;2022-09-23T04:56:41;15.40;;;11.60;;
9328;SDS011;4703;48.748;19.142;2022-09-23T04:59:08;21.87;;;11.40;;
9328;SDS011;4703;48.748;19.142;2022-09-23T05:01:35;16.17;;;10.97;;
9328;SDS011;4703;48.748;19.142;2022-09-23T05:04:04;16.87;;;12.00;;
9328;SDS011;4703;48.748;19.142;2022-09-23T05:06:33;13.80;;;11.37;;
9328;SDS011;4703;48.748;19.142;2022-09-23T05:09:02;14.80;;;10.83;;
9328;SDS011;4703;48.748;19.142;2022-09-23T05:11:32;14.93;;;10.80;;
9328;SDS011;4703;48.748;19.142;2022-09-23T05:13:59;14.63;;;10.00;;
9328;SDS011;4703;48.748;19.142;2022-09-23T05:16:27;12.63;;;11.30;;
9328;SDS011;4703;48.748;19.142;2022-09-23T05:18:55;13.97;;;10.70;;
9328;SDS011;4703;48.748;19.142;2022-09-23T05:21:23;17.10;;;11.67;;
9328;SDS011;4703;48.748;19.142;2022-09-23T05:23:57;12.40;;;10.10;;
9328;SDS011;4703;48.748;19.142;2022-09-23T05:26:27;16.80;;;10.33;;
9328;SDS011;4703;48.748;19.142;2022-09-23T05:28:56;13.93;;;10.60;;
9328;SDS011;4703;48.748;19.142;2022-09-23T05:31:25;16.07;;;10.70;;
9328;SDS011;4703;48.748;19.142;2022-09-23T05:33:56;12.73;;;10.13;;
9328;SDS011;4703;48.748;19.142;2022-09-23T05:36:26;12.60;;;10.40;;
9328;SDS011;4703;48.748;19.142;2022-09-23T05:39:01;12.20;;;10.30;;
9328;SDS011;4703;48.748;19.142;2022-09-23T05:41:28;14.13;;;10.40;;
9328;SDS011;4703;48.748;19.142;2022-09-23T05:43:56;15.27;;;10.50;;
9328;SDS011;4703;48.748;19.142;2022-09-23T05:46:25;16.53;;;10.93;;
9328;SDS011;4703;48.748;19.142;2022-09-23T05:48:55;13.00;;;10.93;;
9328;SDS011;4703;48.748;19.142;2022-09-23T05:51:33;15.30;;;11.30;;
9328;SDS011;4703;48.748;19.142;2022-09-23T05:54:01;14.63;;;10.37;;
9328;SDS011;4703;48.748;19.142;2022-09-23T05:56:30;12.13;;;10.57;;
9328;SDS011;4703;48.748;19.142;2022-09-23T05:58:59;11.17;;;9.93;;
9328;SDS011;4703;48.748;19.142;2022-09-23T06:01:28;18.20;;;13.30;;
9328;SDS011;4703;48.748;19.142;2022-09-23T06:04:00;18.13;;;13.00;;
9328;SDS011;4703;48.748;19.142;2022-09-23T06:06:30;18.57;;;12.57;;
9328;SDS011;4703;48.748;19.142;2022-09-23T06:09:05;16.60;;;12.90;;
9328;SDS011;4703;48.748;19.142;2022-09-23T06:11:37;23.43;;;14.63;;
9328;SDS011;4703;48.748;19.142;2022-09-23T06:14:05;19.40;;;14.30;;
9328;SDS011;4703;48.748;19.142;2022-09-23T06:16:34;21.50;;;13.90;;
9328;SDS011;4703;48.748;19.142;2022-09-23T06:19:02;20.73;;;15.43;;
9328;SDS011;4703;48.748;19.142;2022-09-23T06:21:36;21.23;;;15.30;;
9328;SDS011;4703;48.748;19.142;2022-09-23T06:24:04;18.70;;;13.77;;
9328;SDS011;4703;48.748;19.142;2022-09-23T06:26:33;21.63;;;15.77;;
9328;SDS011;4703;48.748;19.142;2022-09-23T06:29:08;41.20;;;29.00;;
9328;SDS011;4703;48.748;19.142;2022-09-23T06:31:39;40.43;;;27.83;;
9328;SDS011;4703;48.748;19.142;2022-09-23T06:34:11;19.03;;;14.50;;
9328;SDS011;4703;48.748;19.142;2022-09-23T06:36:41;17.90;;;14.13;;
9328;SDS011;4703;48.748;19.142;2022-09-23T06:39:12;17.47;;;14.00;;
9328;SDS011;4703;48.748;19.142;2022-09-23T06:41:40;16.47;;;12.90;;
9328;SDS011;4703;48.748;19.142;2022-09-23T06:44:07;17.47;;;13.00;;
9328;SDS011;4703;48.748;19.142;2022-09-23T06:46:34;19.13;;;13.10;;
9328;SDS011;4703;48.748;19.142;2022-09-23T06:49:02;14.50;;;11.17;;
9328;SDS011;4703;48.748;19.142;2022-09-23T06:51:29;17.43;;;11.90;;
9328;SDS011;4703;48.748;19.142;2022-09-23T06:53:56;17.50;;;12.10;;
9328;SDS011;4703;48.748;19.142;2022-09-23T06:56:23;15.53;;;11.40;;
9328;SDS011;4703;48.748;19.142;2022-09-23T06:58:50;13.50;;;10.73;;
9328;SDS011;4703;48.748;19.142;2022-09-23T07:01:18;17.13;;;11.40;;
9328;SDS011;4703;48.748;19.142;2022-09-23T07:03:45;17.07;;;12.50;;
9328;SDS011;4703;48.748;19.142;2022-09-23T07:06:14;16.63;;;12.50;;
9328;SDS011;4703;48.748;19.142;2022-09-23T07:08:43;12.40;;;10.03;;
9328;SDS011;4703;48.748;19.142;2022-09-23T07:11:12;13.87;;;10.00;;
9328;SDS011;4703;48.748;19.142;2022-09-23T07:13:40;12.47;;;9.73;;
9328;SDS011;4703;48.748;19.142;2022-09-23T07:16:08;15.20;;;11.07;;
9328;SDS011;4703;48.748;19.142;2022-09-23T07:18:36;11.57;;;10.00;;
9328;SDS011;4703;48.748;19.142;2022-09-23T07:21:05;11.40;;;10.20;;
9328;SDS011;4703;48.748;19.142;2022-09-23T07:23:41;12.73;;;10.17;;
9328;SDS011;4703;48.748;19.142;2022-09-23T07:26:11;17.80;;;11.03;;
9328;SDS011;4703;48.748;19.142;2022-09-23T07:28:40;11.67;;;10.40;;
9328;SDS011;4703;48.748;19.142;2022-09-23T07:31:09;13.13;;;9.70;;
9328;SDS011;4703;48.748;19.142;2022-09-23T07:33:54;11.07;;;8.83;;
9328;SDS011;4703;48.748;19.142;2022-09-23T07:36:23;12.50;;;9.67;;
9328;SDS011;4703;48.748;19.142;2022-09-23T07:38:53;13.33;;;9.87;;
9328;SDS011;4703;48.748;19.142;2022-09-23T07:41:25;10.90;;;9.17;;
9328;SDS011;4703;48.748;19.142;2022-09-23T07:43:54;12.70;;;10.07;;
9328;SDS011;4703;48.748;19.142;2022-09-23T07:46:31;14.57;;;10.40;;
9328;SDS011;4703;48.748;19.142;2022-09-23T07:49:01;10.80;;;9.37;;
9328;SDS011;4703;48.748;19.142;2022-09-23T07:51:31;12.73;;;9.43;;
9328;SDS011;4703;48.748;19.142;2022-09-23T07:54:09;22.23;;;16.33;;
9328;SDS011;4703;48.748;19.142;2022-09-23T07:56:39;22.67;;;15.20;;
9328;SDS011;4703;48.748;19.142;2022-09-23T07:59:08;16.50;;;11.60;;
9328;SDS011;4703;48.748;19.142;2022-09-23T08:01:41;13.57;;;11.00;;
9328;SDS011;4703;48.748;19.142;2022-09-23T08:04:13;12.13;;;10.63;;
9328;SDS011;4703;48.748;19.142;2022-09-23T08:06:44;12.40;;;10.80;;
9328;SDS011;4703;48.748;19.142;2022-09-23T08:09:14;11.17;;;10.00;;
9328;SDS011;4703;48.748;19.142;2022-09-23T08:11:43;11.83;;;9.60;;
9328;SDS011;4703;48.748;19.142;2022-09-23T08:14:11;11.10;;;9.90;;
9328;SDS011;4703;48.748;19.142;2022-09-23T08:16:40;10.93;;;9.20;;
9328;SDS011;4703;48.748;19.142;2022-09-23T08:19:07;11.20;;;10.10;;
9328;SDS011;4703;48.748;19.142;2022-09-23T08:21:35;12.37;;;10.83;;
9328;SDS011;4703;48.748;19.142;2022-09-23T08:24:08;13.10;;;10.70;;
9328;SDS011;4703;48.748;19.142;2022-09-23T08:26:39;12.43;;;10.00;;
9328;SDS011;4703;48.748;19.142;2022-09-23T08:29:07;11.50;;;9.80;;
9328;SDS011;4703;48.748;19.142;2022-09-23T08:31:36;10.87;;;9.20;;
9328;SDS011;4703;48.748;19.142;2022-09-23T08:34:03;11.43;;;10.10;;
9328;SDS011;4703;48.748;19.142;2022-09-23T08:36:31;10.93;;;9.40;;
9328;SDS011;4703;48.748;19.142;2022-09-23T08:38:58;12.97;;;9.77;;
9328;SDS011;4703;48.748;19.142;2022-09-23T08:44:25;13.70;;;11.20;;
9328;SDS011;4703;48.748;19.142;2022-09-23T08:46:55;50.43;;;35.73;;
9328;SDS011;4703;48.748;19.142;2022-09-23T08:50:10;43.67;;;32.80;;
9328;SDS011;4703;48.748;19.142;2022-09-23T08:52:48;10.93;;;9.83;;
9328;SDS011;4703;48.748;19.142;2022-09-23T08:55:18;9.37;;;8.40;;
9328;SDS011;4703;48.748;19.142;2022-09-23T09:01:06;9.67;;;8.70;;
9328;SDS011;4703;48.748;19.142;2022-09-23T09:03:48;8.93;;;8.10;;
9328;SDS011;4703;48.748;19.142;2022-09-23T09:09:27;7.50;;;6.80;;
9328;SDS011;4703;48.748;19.142;2022-09-23T09:12:03;7.63;;;6.50;;
9328;SDS011;4703;48.748;19.142;2022-09-23T09:15:10;7.33;;;6.63;;
9328;SDS011;4703;48.748;19.142;2022-09-23T09:17:54;8.27;;;7.47;;
9328;SDS011;4703;48.748;19.142;2022-09-23T09:23:51;13.03;;;9.03;;
9328;SDS011;4703;48.748;19.142;2022-09-23T09:26:28;9.30;;;7.73;;
9328;SDS011;4703;48.748;19.142;2022-09-23T09:29:03;8.67;;;7.50;;
9328;SDS011;4703;48.748;19.142;2022-09-23T09:32:00;8.13;;;7.37;;
9328;SDS011;4703;48.748;19.142;2022-09-23T09:34:53;6.27;;;5.67;;
9328;SDS011;4703;48.748;19.142;2022-09-23T09:37:28;6.97;;;6.30;;
9328;SDS011;4703;48.748;19.142;2022-09-23T09:40:01;10.00;;;9.10;;
9328;SDS011;4703;48.748;19.142;2022-09-23T09:42:36;5.37;;;4.97;;
9328;SDS011;4703;48.748;19.142;2022-09-23T09:45:14;7.20;;;6.50;;
9328;SDS011;4703;48.748;19.142;2022-09-23T09:53:22;5.50;;;5.00;;
9328;SDS011;4703;48.748;19.142;2022-09-23T09:56:04;5.50;;;4.73;;
9328;SDS011;4703;48.748;19.142;2022-09-23T09:58:47;5.03;;;4.50;;
9328;SDS011;4703;48.748;19.142;2022-09-23T10:01:49;4.43;;;4.03;;
9328;SDS011;4703;48.748;19.142;2022-09-23T10:04:23;4.10;;;3.70;;
9328;SDS011;4703;48.748;19.142;2022-09-23T10:07:06;3.93;;;3.63;;
9328;SDS011;4703;48.748;19.142;2022-09-23T10:09:47;3.80;;;3.50;;
9328;SDS011;4703;48.748;19.142;2022-09-23T10:12:20;3.30;;;3.10;;
9328;SDS011;4703;48.748;19.142;2022-09-23T10:14:49;2.93;;;2.73;;
9328;SDS011;4703;48.748;19.142;2022-09-23T10:17:27;3.10;;;2.90;;
9328;SDS011;4703;48.748;19.142;2022-09-23T10:19:59;3.10;;;2.90;;
9328;SDS011;4703;48.748;19.142;2022-09-23T10:22:32;2.97;;;2.77;;
9328;SDS011;4703;48.748;19.142;2022-09-23T10:25:06;2.80;;;2.60;;
9328;SDS011;4703;48.748;19.142;2022-09-23T10:27:41;3.00;;;2.80;;
9328;SDS011;4703;48.748;19.142;2022-09-23T10:32:43;6.77;;;6.17;;
9328;SDS011;4703;48.748;19.142;2022-09-23T10:35:12;30.17;;;25.23;;
9328;SDS011;4703;48.748;19.142;2022-09-23T10:37:49;19.63;;;14.20;;
9328;SDS011;4703;48.748;19.142;2022-09-23T10:40:31;4.03;;;3.73;;
9328;SDS011;4703;48.748;19.142;2022-09-23T10:46:54;3.43;;;3.07;;
9328;SDS011;4703;48.748;19.142;2022-09-23T10:52:42;4.40;;;3.03;;
9328;SDS011;4703;48.748;19.142;2022-09-23T10:55:26;2.60;;;2.50;;
9328;SDS011;4703;48.748;19.142;2022-09-23T10:58:13;2.77;;;2.50;;
9328;SDS011;4703;48.748;19.142;2022-09-23T11:09:18;2.47;;;2.27;;
9328;SDS011;4703;48.748;19.142;2022-09-23T11:12:08;2.30;;;2.10;;
9328;SDS011;4703;48.748;19.142;2022-09-23T11:15:24;2.73;;;2.53;;
9328;SDS011;4703;48.748;19.142;2022-09-23T11:18:04;21.67;;;18.33;;
9328;SDS011;4703;48.748;19.142;2022-09-23T11:21:02;11.47;;;7.87;;
9328;SDS011;4703;48.748;19.142;2022-09-23T11:30:19;2.60;;;2.40;;
9328;SDS011;4703;48.748;19.142;2022-09-23T11:35:48;2.77;;;2.57;;
9328;SDS011;4703;48.748;19.142;2022-09-23T11:38:24;2.17;;;1.97;;
9328;SDS011;4703;48.748;19.142;2022-09-23T11:41:29;2.40;;;2.20;;
9328;SDS011;4703;48.748;19.142;2022-09-23T11:44:10;2.63;;;2.47;;
9328;SDS011;4703;48.748;19.142;2022-09-23T11:46:56;2.80;;;2.60;;
9328;SDS011;4703;48.748;19.142;2022-09-23T11:49:39;2.70;;;2.50;;
9328;SDS011;4703;48.748;19.142;2022-09-23T11:57:53;3.90;;;2.83;;
9328;SDS011;4703;48.748;19.142;2022-09-23T12:00:30;2.70;;;2.50;;
9328;SDS011;4703;48.748;19.142;2022-09-23T12:06:14;2.67;;;2.47;;
9328;SDS011;4703;48.748;19.142;2022-09-23T12:08:49;2.90;;;2.70;;
9328;SDS011;4703;48.748;19.142;2022-09-23T12:11:40;4.03;;;2.30;;
9328;SDS011;4703;48.748;19.142;2022-09-23T12:14:51;2.60;;;2.40;;
9328;SDS011;4703;48.748;19.142;2022-09-23T12:18:29;2.73;;;2.53;;
9328;SDS011;4703;48.748;19.142;2022-09-23T12:21:39;3.20;;;3.00;;
9328;SDS011;4703;48.748;19.142;2022-09-23T12:27:46;3.27;;;3.07;;
9328;SDS011;4703;48.748;19.142;2022-09-23T12:30:19;2.70;;;2.50;;
9328;SDS011;4703;48.748;19.142;2022-09-23T12:32:49;2.87;;;2.67;;
9328;SDS011;4703;48.748;19.142;2022-09-23T12:35:24;2.73;;;2.53;;
9328;SDS011;4703;48.748;19.142;2022-09-23T12:37:59;32.87;;;25.63;;
9328;SDS011;4703;48.748;19.142;2022-09-23T12:40:34;36.40;;;25.80;;
9328;SDS011;4703;48.748;19.142;2022-09-23T12:43:17;16.13;;;11.90;;
9328;SDS011;4703;48.748;19.142;2022-09-23T12:51:27;2.90;;;2.70;;
9328;SDS011;4703;48.748;19.142;2022-09-23T12:59:22;3.80;;;3.50;;
9328;SDS011;4703;48.748;19.142;2022-09-23T13:01:57;3.20;;;3.00;;
9328;SDS011;4703;48.748;19.142;2022-09-23T13:04:58;3.40;;;3.10;;
9328;SDS011;4703;48.748;19.142;2022-09-23T13:08:18;4.07;;;3.67;;
9328;SDS011;4703;48.748;19.142;2022-09-23T13:10:54;2.90;;;2.70;;
9328;SDS011;4703;48.748;19.142;2022-09-23T13:13:38;3.00;;;2.80;;
9328;SDS011;4703;48.748;19.142;2022-09-23T13:16:11;3.97;;;3.50;;
9328;SDS011;4703;48.748;19.142;2022-09-23T13:18:59;3.87;;;3.57;;
9328;SDS011;4703;48.748;19.142;2022-09-23T13:27:09;2.97;;;2.77;;
9328;SDS011;4703;48.748;19.142;2022-09-23T13:29:42;3.90;;;2.87;;
9328;SDS011;4703;48.748;19.142;2022-09-23T13:32:18;3.10;;;2.80;;
9328;SDS011;4703;48.748;19.142;2022-09-23T13:35:03;3.37;;;3.17;;
9328;SDS011;4703;48.748;19.142;2022-09-23T13:37:52;7.23;;;6.53;;
9328;SDS011;4703;48.748;19.142;2022-09-23T13:40:21;18.60;;;12.10;;
9328;SDS011;4703;48.748;19.142;2022-09-23T13:43:02;4.27;;;3.87;;
9328;SDS011;4703;48.748;19.142;2022-09-23T13:45:51;3.30;;;3.10;;
9328;SDS011;4703;48.748;19.142;2022-09-23T13:48:21;3.40;;;3.10;;
9328;SDS011;4703;48.748;19.142;2022-09-23T13:50:51;3.13;;;2.93;;
9328;SDS011;4703;48.748;19.142;2022-09-23T13:53:23;2.90;;;2.70;;
9328;SDS011;4703;48.748;19.142;2022-09-23T13:55:58;2.90;;;2.70;;
9328;SDS011;4703;48.748;19.142;2022-09-23T13:58:37;3.00;;;2.80;;
9328;SDS011;4703;48.748;19.142;2022-09-23T14:01:14;3.50;;;2.77;;
9328;SDS011;4703;48.748;19.142;2022-09-23T14:04:00;2.60;;;2.40;;
9328;SDS011;4703;48.748;19.142;2022-09-23T14:06:28;2.93;;;2.70;;
9328;SDS011;4703;48.748;19.142;2022-09-23T14:08:57;3.17;;;2.93;;
9328;SDS011;4703;48.748;19.142;2022-09-23T14:11:29;3.23;;;2.97;;
9328;SDS011;4703;48.748;19.142;2022-09-23T14:13:59;4.87;;;2.77;;
9328;SDS011;4703;48.748;19.142;2022-09-23T14:16:34;2.43;;;2.33;;
9328;SDS011;4703;48.748;19.142;2022-09-23T14:19:03;2.70;;;2.50;;
9328;SDS011;4703;48.748;19.142;2022-09-23T14:21:37;2.97;;;2.70;;
9328;SDS011;4703;48.748;19.142;2022-09-23T14:24:15;2.67;;;2.47;;
9328;SDS011;4703;48.748;19.142;2022-09-23T14:27:27;2.57;;;2.40;;
9328;SDS011;4703;48.748;19.142;2022-09-23T14:29:42;2.80;;;2.60;;
9328;SDS011;4703;48.748;19.142;2022-09-23T14:32:13;2.63;;;2.43;;
9328;SDS011;4703;48.748;19.142;2022-09-23T14:45:49;2.50;;;2.40;;
9328;SDS011;4703;48.748;19.142;2022-09-23T14:48:26;2.83;;;2.63;;
9328;SDS011;4703;48.748;19.142;2022-09-23T14:50:57;2.67;;;2.50;;
9328;SDS011;4703;48.748;19.142;2022-09-23T15:01:24;2.30;;;2.20;;
9328;SDS011;4703;48.748;19.142;2022-09-23T15:03:52;2.70;;;2.50;;
9328;SDS011;4703;48.748;19.142;2022-09-23T15:06:21;3.60;;;3.30;;
9328;SDS011;4703;48.748;19.142;2022-09-23T15:08:49;3.10;;;2.87;;
9328;SDS011;4703;48.748;19.142;2022-09-23T15:11:20;3.10;;;2.90;;
9328;SDS011;4703;48.748;19.142;2022-09-23T15:13:48;2.77;;;2.57;;
9328;SDS011;4703;48.748;19.142;2022-09-23T15:16:27;3.07;;;2.87;;
9328;SDS011;4703;48.748;19.142;2022-09-23T15:18:56;2.50;;;2.30;;
9328;SDS011;4703;48.748;19.142;2022-09-23T15:21:30;2.77;;;2.57;;
9328;SDS011;4703;48.748;19.142;2022-09-23T15:27:32;2.80;;;2.60;;
9328;SDS011;4703;48.748;19.142;2022-09-23T15:32:42;3.30;;;3.00;;
9328;SDS011;4703;48.748;19.142;2022-09-23T15:35:11;3.60;;;3.30;;
9328;SDS011;4703;48.748;19.142;2022-09-23T15:37:41;3.13;;;2.93;;
9328;SDS011;4703;48.748;19.142;2022-09-23T15:40:18;3.07;;;2.80;;
9328;SDS011;4703;48.748;19.142;2022-09-23T15:42:58;3.20;;;2.90;;
9328;SDS011;4703;48.748;19.142;2022-09-23T15:45:40;2.80;;;2.60;;
9328;SDS011;4703;48.748;19.142;2022-09-23T15:48:16;7.40;;;6.07;;
9328;SDS011;4703;48.748;19.142;2022-09-23T15:50:50;6.77;;;6.07;;
9328;SDS011;4703;48.748;19.142;2022-09-23T15:53:19;9.07;;;8.13;;
9328;SDS011;4703;48.748;19.142;2022-09-23T15:55:49;8.80;;;7.90;;
9328;SDS011;4703;48.748;19.142;2022-09-23T15:58:17;9.57;;;8.27;;
9328;SDS011;4703;48.748;19.142;2022-09-23T16:00:48;8.70;;;7.80;;
9328;SDS011;4703;48.748;19.142;2022-09-23T16:03:22;9.00;;;8.10;;
9328;SDS011;4703;48.748;19.142;2022-09-23T16:05:54;9.83;;;8.37;;
9328;SDS011;4703;48.748;19.142;2022-09-23T16:08:25;7.90;;;7.20;;
9328;SDS011;4703;48.748;19.142;2022-09-23T16:10:53;8.63;;;7.77;;
9328;SDS011;4703;48.748;19.142;2022-09-23T16:13:20;8.73;;;7.50;;
9328;SDS011;4703;48.748;19.142;2022-09-23T16:15:48;8.13;;;7.20;;
9328;SDS011;4703;48.748;19.142;2022-09-23T16:18:18;8.90;;;8.00;;
9328;SDS011;4703;48.748;19.142;2022-09-23T16:20:45;9.70;;;8.53;;
9328;SDS011;4703;48.748;19.142;2022-09-23T16:26:43;9.37;;;8.13;;
9328;SDS011;4703;48.748;19.142;2022-09-23T16:28:55;8.73;;;7.67;;
9328;SDS011;4703;48.748;19.142;2022-09-23T16:31:23;19.43;;;10.70;;
9328;SDS011;4703;48.748;19.142;2022-09-23T16:33:52;17.83;;;11.87;;
9328;SDS011;4703;48.748;19.142;2022-09-23T16:36:23;14.43;;;10.73;;
9328;SDS011;4703;48.748;19.142;2022-09-23T16:38:54;12.67;;;10.07;;
9328;SDS011;4703;48.748;19.142;2022-09-23T16:41:21;12.50;;;10.10;;
9328;SDS011;4703;48.748;19.142;2022-09-23T16:43:50;11.57;;;9.83;;
9328;SDS011;4703;48.748;19.142;2022-09-23T16:46:18;12.70;;;10.30;;
9328;SDS011;4703;48.748;19.142;2022-09-23T16:48:46;12.33;;;9.60;;
9328;SDS011;4703;48.748;19.142;2022-09-23T16:51:19;10.83;;;9.73;;
9328;SDS011;4703;48.748;19.142;2022-09-23T16:53:49;13.67;;;10.33;;
9328;SDS011;4703;48.748;19.142;2022-09-23T16:56:18;14.43;;;10.70;;
9328;SDS011;4703;48.748;19.142;2022-09-23T16:58:53;12.50;;;9.70;;
9328;SDS011;4703;48.748;19.142;2022-09-23T17:01:21;10.93;;;9.53;;
9328;SDS011;4703;48.748;19.142;2022-09-23T17:04:10;18.43;;;10.80;;
9328;SDS011;4703;48.748;19.142;2022-09-23T17:06:49;12.53;;;10.60;;
9328;SDS011;4703;48.748;19.142;2022-09-23T17:09:19;11.83;;;10.60;;
9328;SDS011;4703;48.748;19.142;2022-09-23T17:11:50;11.03;;;10.00;;
9328;SDS011;4703;48.748;19.142;2022-09-23T17:14:47;11.77;;;10.57;;
9328;SDS011;4703;48.748;19.142;2022-09-23T17:17:14;12.13;;;10.80;;
9328;SDS011;4703;48.748;19.142;2022-09-23T17:19:41;15.00;;;11.43;;
9328;SDS011;4703;48.748;19.142;2022-09-23T17:22:07;11.37;;;10.07;;
9328;SDS011;4703;48.748;19.142;2022-09-23T17:24:35;13.40;;;11.03;;
9328;SDS011;4703;48.748;19.142;2022-09-23T17:27:02;15.13;;;11.07;;
9328;SDS011;4703;48.748;19.142;2022-09-23T17:29:29;11.77;;;8.97;;
9328;SDS011;4703;48.748;19.142;2022-09-23T17:31:55;7.30;;;6.50;;
9328;SDS011;4703;48.748;19.142;2022-09-23T17:34:23;8.37;;;7.43;;
9328;SDS011;4703;48.748;19.142;2022-09-23T17:36:50;13.80;;;11.17;;
9328;SDS011;4703;48.748;19.142;2022-09-23T17:39:17;12.67;;;11.47;;
9328;SDS011;4703;48.748;19.142;2022-09-23T17:41:44;10.43;;;9.40;;
9328;SDS011;4703;48.748;19.142;2022-09-23T17:44:11;16.67;;;10.43;;
9328;SDS011;4703;48.748;19.142;2022-09-23T17:46:38;17.57;;;12.20;;
9328;SDS011;4703;48.748;19.142;2022-09-23T17:49:04;12.47;;;10.83;;
9328;SDS011;4703;48.748;19.142;2022-09-23T17:51:33;15.40;;;12.00;;
9328;SDS011;4703;48.748;19.142;2022-09-23T17:54:00;13.30;;;12.00;;
9328;SDS011;4703;48.748;19.142;2022-09-23T17:56:27;13.93;;;10.23;;
9328;SDS011;4703;48.748;19.142;2022-09-23T17:58:58;10.53;;;9.43;;
9328;SDS011;4703;48.748;19.142;2022-09-23T18:01:27;9.93;;;8.90;;
9328;SDS011;4703;48.748;19.142;2022-09-23T18:03:58;10.13;;;9.13;;
9328;SDS011;4703;48.748;19.142;2022-09-23T18:06:28;11.67;;;10.30;;